createdAt,value
2023-01-26T00:01:29.295Z,10.35
2023-01-26T00:03:57.707Z,10.25
2023-01-26T00:06:25.809Z,10.57
2023-01-26T00:08:56.671Z,10.25
2023-01-26T00:11:26.780Z,9.95
2023-01-26T00:13:55.876Z,10.18
2023-01-26T00:16:23.563Z,10.80
2023-01-26T00:18:50.816Z,8.77
2023-01-26T00:21:20.981Z,9.85
2023-01-26T00:23:49.581Z,9.55
2023-01-26T00:26:20.972Z,11.02
2023-01-26T00:28:48.506Z,10.85
2023-01-26T00:31:25.424Z,10.15
2023-01-26T00:33:54.465Z,10.95
2023-01-26T00:36:21.906Z,9.93
2023-01-26T00:38:48.793Z,10.75
2023-01-26T00:41:34.818Z,9.85
2023-01-26T00:44:02.283Z,9.13
2023-01-26T00:46:29.788Z,11.48
2023-01-26T00:48:56.766Z,10.23
2023-01-26T00:51:23.812Z,10.80
2023-01-26T00:53:50.700Z,9.57
2023-01-26T00:56:19.208Z,10.30
2023-01-26T00:58:46.933Z,11.63
2023-01-26T01:01:14.134Z,9.95
2023-01-26T01:03:42.806Z,10.38
2023-01-26T01:06:09.969Z,9.82
2023-01-26T01:08:37.044Z,10.60
2023-01-26T01:11:10.723Z,10.43
2023-01-26T01:13:38.828Z,9.77
2023-01-26T01:16:12.233Z,9.77
2023-01-26T01:18:39.663Z,9.93
2023-01-26T01:21:13.208Z,9.77
2023-01-26T01:23:40.938Z,8.90
2023-01-26T01:26:10.323Z,9.65
2023-01-26T01:28:37.911Z,9.23
2023-01-26T01:31:11.132Z,9.88
2023-01-26T01:33:38.403Z,9.75
2023-01-26T01:36:15.342Z,9.82
2023-01-26T01:38:44.369Z,10.68
2023-01-26T01:41:11.906Z,9.02
2023-01-26T01:43:39.296Z,9.10
2023-01-26T01:46:36.113Z,9.23
2023-01-26T01:49:17.193Z,9.40
2023-01-26T01:51:53.137Z,10.10
2023-01-26T01:54:34.543Z,11.23
2023-01-26T01:57:15.508Z,10.27
2023-01-26T01:59:48.689Z,9.57
2023-01-26T02:02:15.992Z,9.40
2023-01-26T02:04:43.030Z,9.18
2023-01-26T02:07:12.090Z,8.45
2023-01-26T02:09:59.537Z,8.40
2023-01-26T02:12:33.200Z,9.25
2023-01-26T02:15:01.365Z,7.68
2023-01-26T02:17:28.255Z,8.70
2023-01-26T02:20:27.057Z,8.93
2023-01-26T02:23:09.261Z,7.70
2023-01-26T02:25:54.110Z,8.80
2023-01-26T02:28:25.708Z,9.80
2023-01-26T02:30:54.794Z,9.55
2023-01-26T02:33:26.383Z,10.27
2023-01-26T02:35:56.707Z,10.15
2023-01-26T02:38:31.548Z,10.45
2023-01-26T02:41:07.121Z,9.50
2023-01-26T02:43:35.460Z,9.23
2023-01-26T02:46:04.815Z,10.05
2023-01-26T02:48:54.869Z,11.20
2023-01-26T02:51:22.909Z,8.98
2023-01-26T02:53:49.991Z,10.50
2023-01-26T02:56:17.669Z,9.65
2023-01-26T02:58:44.746Z,9.40
2023-01-26T03:01:11.759Z,9.70
2023-01-26T03:03:47.453Z,9.85
2023-01-26T03:06:15.685Z,9.93
2023-01-26T03:08:42.777Z,10.98
2023-01-26T03:11:10.078Z,9.90
2023-01-26T03:13:37.709Z,10.18
2023-01-26T03:16:10.153Z,9.98
2023-01-26T03:18:55.489Z,10.75
2023-01-26T03:21:42.003Z,10.90
2023-01-26T03:24:31.944Z,10.63
2023-01-26T03:27:20.494Z,10.88
2023-01-26T03:29:47.999Z,9.98
2023-01-26T03:32:15.562Z,9.10
2023-01-26T03:34:43.167Z,10.43
2023-01-26T03:37:10.837Z,10.23
2023-01-26T03:40:06.049Z,11.20
2023-01-26T03:42:54.005Z,9.43
2023-01-26T03:45:40.117Z,11.23
2023-01-26T03:48:29.161Z,11.38
2023-01-26T03:51:16.792Z,10.48
2023-01-26T03:54:02.910Z,10.65
2023-01-26T03:56:33.915Z,10.75
2023-01-26T03:59:09.007Z,11.18
2023-01-26T04:01:41.210Z,11.73
2023-01-26T04:04:27.625Z,11.13
2023-01-26T04:07:14.431Z,11.68
2023-01-26T04:09:46.158Z,11.43
2023-01-26T04:12:14.070Z,10.45
2023-01-26T04:15:12.768Z,10.63
2023-01-26T04:17:59.176Z,11.90
2023-01-26T04:20:45.092Z,10.82
2023-01-26T04:23:19.960Z,10.90
2023-01-26T04:25:48.849Z,12.38
2023-01-26T04:28:16.127Z,11.57
2023-01-26T04:30:43.970Z,12.00
2023-01-26T04:33:11.623Z,10.77
2023-01-26T04:35:39.398Z,12.30
2023-01-26T04:38:07.315Z,13.00
2023-01-26T04:40:34.401Z,12.13
2023-01-26T04:43:01.406Z,13.55
2023-01-26T04:45:28.578Z,14.15
2023-01-26T04:47:55.877Z,13.48
2023-01-26T04:50:22.802Z,12.23
2023-01-26T04:52:50.391Z,12.27
2023-01-26T04:55:17.350Z,11.98
2023-01-26T04:57:44.687Z,13.50
2023-01-26T05:00:13.056Z,11.98
2023-01-26T05:02:41.004Z,13.05
2023-01-26T05:05:09.724Z,12.75
2023-01-26T05:07:36.865Z,11.82
2023-01-26T05:10:04.815Z,13.13
2023-01-26T05:12:42.747Z,12.30
2023-01-26T05:15:33.295Z,10.93
2023-01-26T05:18:23.431Z,10.63
2023-01-26T05:20:55.613Z,11.55
2023-01-26T05:23:27.374Z,11.32
2023-01-26T05:26:10.169Z,11.05
2023-01-26T05:28:51.693Z,10.80
2023-01-26T05:31:18.757Z,10.88
2023-01-26T05:33:45.788Z,12.85
2023-01-26T05:36:15.857Z,10.52
2023-01-26T05:38:42.828Z,11.60
2023-01-26T05:41:09.985Z,10.85
2023-01-26T05:44:03.079Z,10.20
2023-01-26T05:46:35.999Z,10.45
2023-01-26T05:49:03.133Z,10.48
2023-01-26T05:51:30.196Z,11.75
2023-01-26T05:53:57.178Z,10.90
2023-01-26T05:56:25.023Z,11.70
2023-01-26T05:58:57.842Z,11.02
2023-01-26T06:01:24.885Z,10.00
2023-01-26T06:03:57.897Z,10.10
2023-01-26T06:06:27.614Z,9.30
2023-01-26T06:09:14.920Z,8.30
2023-01-26T06:12:04.714Z,7.85
2023-01-26T06:14:47.489Z,8.40
2023-01-26T06:17:17.358Z,9.82
2023-01-26T06:19:45.259Z,9.18
2023-01-26T06:22:13.832Z,8.02
2023-01-26T06:24:47.180Z,7.68
2023-01-26T06:27:17.012Z,8.63
2023-01-26T06:29:46.086Z,8.75
2023-01-26T06:32:14.561Z,8.25
2023-01-26T06:34:44.261Z,7.78
2023-01-26T06:37:11.208Z,8.38
2023-01-26T06:39:41.563Z,8.25
2023-01-26T06:42:09.487Z,9.65
2023-01-26T06:44:38.536Z,8.75
2023-01-26T06:47:07.597Z,8.45
2023-01-26T06:49:35.316Z,9.07
2023-01-26T06:52:30.779Z,9.15
2023-01-26T06:55:06.091Z,8.02
2023-01-26T06:57:47.230Z,8.10
2023-01-26T07:00:49.843Z,9.50
2023-01-26T07:03:26.989Z,8.73
2023-01-26T07:05:53.919Z,10.05
2023-01-26T07:08:20.904Z,9.88
2023-01-26T07:10:49.538Z,9.93
2023-01-26T07:13:16.777Z,9.55
2023-01-26T07:15:43.768Z,10.30
2023-01-26T07:18:10.915Z,9.85
2023-01-26T07:20:37.835Z,9.52
2023-01-26T07:23:04.804Z,9.07
2023-01-26T07:25:31.824Z,9.95
2023-01-26T07:28:00.123Z,9.00
2023-01-26T07:30:27.276Z,9.48
2023-01-26T07:32:54.181Z,9.07
2023-01-26T07:35:21.206Z,9.23
2023-01-26T07:37:48.080Z,9.35
2023-01-26T07:40:15.138Z,8.27
2023-01-26T07:42:41.952Z,9.43
2023-01-26T07:45:53.219Z,9.50
2023-01-26T07:48:23.127Z,9.63
2023-01-26T07:50:50.807Z,10.05
2023-01-26T07:53:19.620Z,10.00
2023-01-26T07:55:47.183Z,8.63
2023-01-26T07:58:14.270Z,9.32
2023-01-26T08:00:41.521Z,8.77
2023-01-26T08:03:08.897Z,9.68
2023-01-26T08:05:37.042Z,8.73
2023-01-26T08:08:04.665Z,9.45
2023-01-26T08:10:32.018Z,9.52
2023-01-26T08:13:00.649Z,9.63
2023-01-26T08:15:28.887Z,8.98
2023-01-26T08:17:56.009Z,9.80
2023-01-26T08:20:23.743Z,9.57
2023-01-26T08:22:50.618Z,9.15
2023-01-26T08:25:17.652Z,9.18
2023-01-26T08:27:44.732Z,9.68
2023-01-26T08:30:13.631Z,9.50
2023-01-26T08:32:40.911Z,9.48
2023-01-26T08:35:08.305Z,8.52
2023-01-26T08:37:35.384Z,8.98
2023-01-26T08:40:02.469Z,8.93
2023-01-26T08:42:29.488Z,8.98
2023-01-26T08:44:56.552Z,8.05
2023-01-26T08:47:23.834Z,9.15
2023-01-26T08:49:50.855Z,8.63
2023-01-26T08:52:17.920Z,7.97
2023-01-26T08:54:44.930Z,7.63
2023-01-26T08:57:12.190Z,7.53
2023-01-26T08:59:39.042Z,7.68
2023-01-26T09:02:06.298Z,7.93
2023-01-26T09:04:33.944Z,7.82
2023-01-26T09:07:01.070Z,8.40
2023-01-26T09:09:28.031Z,7.93
2023-01-26T09:11:58.105Z,7.03
2023-01-26T09:14:25.431Z,8.45
2023-01-26T09:16:52.630Z,8.02
2023-01-26T09:19:19.714Z,7.05
2023-01-26T09:21:46.681Z,8.05
2023-01-26T09:24:13.631Z,8.50
2023-01-26T09:26:40.579Z,7.70
2023-01-26T09:29:07.532Z,8.15
2023-01-26T09:31:34.640Z,7.53
2023-01-26T09:34:01.620Z,7.50
2023-01-26T09:36:28.544Z,8.23
2023-01-26T09:38:55.589Z,8.23
2023-01-26T09:41:51.990Z,7.70
2023-01-26T09:44:27.672Z,6.83
2023-01-26T09:47:15.457Z,7.68
2023-01-26T09:49:58.254Z,7.38
2023-01-26T09:52:36.096Z,7.88
2023-01-26T09:55:07.256Z,8.30
2023-01-26T09:58:09.695Z,7.93
2023-01-26T10:00:37.885Z,7.63
2023-01-26T10:03:35.739Z,7.70
2023-01-26T10:06:29.457Z,7.75
2023-01-26T10:09:35.642Z,8.13
2023-01-26T10:12:07.731Z,8.40
2023-01-26T10:14:44.806Z,8.70
2023-01-26T10:17:35.486Z,8.38
2023-01-26T10:20:10.218Z,7.80
2023-01-26T10:22:52.347Z,8.13
2023-01-26T10:25:38.305Z,8.52
2023-01-26T10:28:22.244Z,7.67
2023-01-26T10:30:51.425Z,7.35
2023-01-26T10:33:31.040Z,7.13
2023-01-26T10:35:58.509Z,7.35
2023-01-26T10:38:49.877Z,8.23
2023-01-26T10:41:19.464Z,7.78
2023-01-26T10:44:23.410Z,8.43
2023-01-26T10:47:21.349Z,7.00
2023-01-26T10:49:49.065Z,6.93
2023-01-26T10:52:21.747Z,7.22
2023-01-26T10:54:52.126Z,7.68
2023-01-26T10:57:29.680Z,7.55
2023-01-26T11:00:20.519Z,7.32
2023-01-26T11:02:54.683Z,7.38
2023-01-26T11:05:24.729Z,9.02
2023-01-26T11:07:58.711Z,7.00
2023-01-26T11:10:37.020Z,7.57
2023-01-26T11:13:21.647Z,6.97
2023-01-26T11:16:21.730Z,7.57
2023-01-26T11:19:13.198Z,7.38
2023-01-26T11:21:49.466Z,7.93
2023-01-26T11:24:21.998Z,7.38
2023-01-26T11:27:36.963Z,7.57
2023-01-26T11:30:45.124Z,7.85
2023-01-26T11:33:56.859Z,7.95
2023-01-26T11:36:48.897Z,8.38
2023-01-26T11:39:34.569Z,8.80
2023-01-26T11:42:22.439Z,8.45
2023-01-26T11:45:30.162Z,8.02
2023-01-26T11:48:42.971Z,7.38
2023-01-26T11:51:45.102Z,8.00
2023-01-26T11:54:36.502Z,7.90
2023-01-26T11:57:27.054Z,8.82
2023-01-26T12:00:05.633Z,7.95
2023-01-26T12:02:42.789Z,8.00
2023-01-26T12:05:21.595Z,8.02
2023-01-26T12:08:13.045Z,7.57
2023-01-26T12:11:23.691Z,7.70
2023-01-26T12:14:22.281Z,7.30
2023-01-26T12:17:46.258Z,7.90
2023-01-26T12:20:36.298Z,7.68
2023-01-26T12:23:07.986Z,8.07
2023-01-26T12:25:42.152Z,9.75
2023-01-26T12:28:21.177Z,9.55
2023-01-26T12:31:13.756Z,8.55
2023-01-26T12:33:41.372Z,9.50
2023-01-26T12:36:25.611Z,9.18
2023-01-26T12:39:25.498Z,8.65
2023-01-26T12:42:17.831Z,8.43
2023-01-26T12:44:55.678Z,8.23
2023-01-26T12:48:06.835Z,7.30
2023-01-26T12:50:50.292Z,8.07
2023-01-26T12:53:30.173Z,8.20
2023-01-26T12:56:28.511Z,8.00
2023-01-26T12:58:58.703Z,8.25
2023-01-26T13:01:38.436Z,7.35
2023-01-26T13:04:11.829Z,6.57
2023-01-26T13:06:38.862Z,7.55
2023-01-26T13:09:24.951Z,7.80
2023-01-26T13:11:59.905Z,5.20
2023-01-26T13:14:38.423Z,6.68
2023-01-26T13:17:18.059Z,7.60
2023-01-26T13:19:44.958Z,7.22
2023-01-26T13:22:23.975Z,7.03
2023-01-26T13:24:57.663Z,7.80
2023-01-26T13:27:46.143Z,7.55
2023-01-26T13:30:22.229Z,6.40
2023-01-26T13:32:49.075Z,7.20
2023-01-26T13:35:23.337Z,7.82
2023-01-26T13:38:09.735Z,9.05
2023-01-26T13:40:43.144Z,9.50
2023-01-26T13:43:44.975Z,8.38
2023-01-26T13:46:32.523Z,8.88
2023-01-26T13:48:59.770Z,8.88
2023-01-26T13:51:33.935Z,8.80
2023-01-26T13:54:12.533Z,7.75
2023-01-26T13:57:03.592Z,8.20
2023-01-26T13:59:33.238Z,7.65
2023-01-26T14:02:00.612Z,8.32
2023-01-26T14:04:30.784Z,8.35
2023-01-26T14:07:12.643Z,8.18
2023-01-26T14:09:50.591Z,8.27
2023-01-26T14:12:23.725Z,8.00
2023-01-26T14:14:54.897Z,6.57
2023-01-26T14:17:31.737Z,7.50
2023-01-26T14:20:00.453Z,6.40
2023-01-26T14:22:28.222Z,6.40
2023-01-26T14:24:55.941Z,6.93
2023-01-26T14:27:39.369Z,6.95
2023-01-26T14:30:31.806Z,7.22
2023-01-26T14:33:13.053Z,6.38
2023-01-26T14:35:41.384Z,7.28
2023-01-26T14:38:11.384Z,7.35
2023-01-26T14:40:53.776Z,7.05
2023-01-26T14:43:21.700Z,6.82
2023-01-26T14:46:10.979Z,7.47
2023-01-26T14:48:50.618Z,7.05
2023-01-26T14:51:24.132Z,6.97
2023-01-26T14:53:56.048Z,7.28
2023-01-26T14:56:37.050Z,8.15
2023-01-26T14:59:07.155Z,7.50
2023-01-26T15:01:34.650Z,6.38
2023-01-26T15:04:20.946Z,6.60
2023-01-26T15:06:47.830Z,6.15
2023-01-26T15:09:35.739Z,6.75
2023-01-26T15:12:18.750Z,8.05
2023-01-26T15:14:45.721Z,7.35
2023-01-26T15:17:41.366Z,7.45
2023-01-26T15:20:31.541Z,7.47
2023-01-26T15:22:58.436Z,8.07
2023-01-26T15:25:28.538Z,7.13
2023-01-26T15:27:59.169Z,7.63
2023-01-26T15:30:37.001Z,8.95
2023-01-26T15:33:04.193Z,8.63
2023-01-26T15:35:34.075Z,7.90
2023-01-26T15:38:13.059Z,8.07
2023-01-26T15:40:40.203Z,9.05
2023-01-26T15:43:19.045Z,9.68
2023-01-26T15:45:59.945Z,9.23
2023-01-26T15:48:31.496Z,9.35
2023-01-26T15:50:58.377Z,9.35
2023-01-26T15:53:25.829Z,8.82
2023-01-26T15:55:55.300Z,9.85
2023-01-26T15:58:23.446Z,9.00
2023-01-26T16:00:52.327Z,9.60
2023-01-26T16:03:22.348Z,9.65
2023-01-26T16:05:49.643Z,9.23
2023-01-26T16:08:18.270Z,9.88
2023-01-26T16:10:46.172Z,10.23
2023-01-26T16:13:18.700Z,9.35
2023-01-26T16:15:53.885Z,9.02
2023-01-26T16:18:21.097Z,9.70
2023-01-26T16:20:49.588Z,14.10
2023-01-26T16:23:27.237Z,10.77
2023-01-26T16:25:55.595Z,11.10
2023-01-26T16:28:22.733Z,9.98
2023-01-26T16:30:51.275Z,11.25
2023-01-26T16:33:24.928Z,9.40
2023-01-26T16:35:51.894Z,9.45
2023-01-26T16:38:18.819Z,9.77
2023-01-26T16:40:48.231Z,9.45
2023-01-26T16:43:20.136Z,9.88
2023-01-26T16:45:47.963Z,9.73
2023-01-26T16:48:17.172Z,9.65
2023-01-26T16:50:45.152Z,10.95
2023-01-26T16:53:32.921Z,9.85
2023-01-26T16:56:00.381Z,9.82
2023-01-26T16:58:28.014Z,9.82
2023-01-26T17:00:55.587Z,10.48
2023-01-26T17:03:23.461Z,10.50
2023-01-26T17:05:50.558Z,11.30
2023-01-26T17:08:17.714Z,10.48
2023-01-26T17:11:00.689Z,10.60
2023-01-26T17:13:28.902Z,10.60
2023-01-26T17:15:57.804Z,9.93
2023-01-26T17:18:25.436Z,10.30
2023-01-26T17:20:52.614Z,10.32
2023-01-26T17:23:19.671Z,10.20
2023-01-26T17:25:46.657Z,9.98
2023-01-26T17:28:13.603Z,9.30
2023-01-26T17:30:40.731Z,9.70
2023-01-26T17:33:07.676Z,9.25
2023-01-26T17:35:34.819Z,9.88
2023-01-26T17:38:01.761Z,9.43
2023-01-26T17:40:28.694Z,9.45
2023-01-26T17:42:55.638Z,9.15
2023-01-26T17:45:23.254Z,9.32
2023-01-26T17:47:50.544Z,9.82
2023-01-26T17:50:17.653Z,9.20
2023-01-26T17:52:44.943Z,8.60
2023-01-26T17:55:12.205Z,8.18
2023-01-26T17:57:39.392Z,8.85
2023-01-26T18:00:07.230Z,9.05
2023-01-26T18:02:37.838Z,8.88
2023-01-26T18:05:06.171Z,8.38
2023-01-26T18:07:33.337Z,9.77
2023-01-26T18:10:00.360Z,8.80
2023-01-26T18:12:27.471Z,8.45
2023-01-26T18:14:55.167Z,8.20
2023-01-26T18:17:22.327Z,9.25
2023-01-26T18:19:49.335Z,9.10
2023-01-26T18:22:16.429Z,10.00
2023-01-26T18:24:43.559Z,11.13
2023-01-26T18:27:10.534Z,10.32
2023-01-26T18:29:37.642Z,10.95
2023-01-26T18:32:04.974Z,10.10
2023-01-26T18:34:32.066Z,11.63
2023-01-26T18:36:59.063Z,10.65
2023-01-26T18:39:27.745Z,11.27
2023-01-26T18:41:54.828Z,10.73
2023-01-26T18:44:22.601Z,11.43
2023-01-26T18:46:49.542Z,10.13
2023-01-26T18:49:17.450Z,11.88
2023-01-26T18:51:47.948Z,11.48
2023-01-26T18:54:16.360Z,11.05
2023-01-26T18:56:43.336Z,10.90
2023-01-26T18:59:10.773Z,11.65
2023-01-26T19:01:38.924Z,11.70
2023-01-26T19:04:07.253Z,12.27
2023-01-26T19:06:36.101Z,12.73
2023-01-26T19:09:08.722Z,12.45
2023-01-26T19:11:38.318Z,13.43
2023-01-26T19:14:07.464Z,12.25
2023-01-26T19:16:35.860Z,13.02
2023-01-26T19:19:02.895Z,11.88
2023-01-26T19:21:31.321Z,11.13
2023-01-26T19:24:02.337Z,12.48
2023-01-26T19:26:30.509Z,11.82
2023-01-26T19:28:58.789Z,11.52
2023-01-26T19:31:27.549Z,10.93
2023-01-26T19:33:57.856Z,11.38
2023-01-26T19:36:27.458Z,10.98
2023-01-26T19:38:54.428Z,12.40
2023-01-26T19:41:22.218Z,11.45
2023-01-26T19:43:50.283Z,11.70
2023-01-26T19:46:18.991Z,11.13
2023-01-26T19:48:46.558Z,10.23
2023-01-26T19:51:16.968Z,12.80
2023-01-26T19:53:47.136Z,12.15
2023-01-26T19:56:23.998Z,12.07
2023-01-26T19:58:53.749Z,10.93
2023-01-26T20:01:22.187Z,11.98
2023-01-26T20:03:54.669Z,11.55
2023-01-26T20:06:25.065Z,10.10
2023-01-26T20:08:53.759Z,11.10
2023-01-26T20:11:24.933Z,12.55
2023-01-26T20:14:00.990Z,10.63
2023-01-26T20:16:29.963Z,9.43
2023-01-26T20:18:59.030Z,9.27
2023-01-26T20:21:26.979Z,9.23
2023-01-26T20:23:55.992Z,9.73
2023-01-26T20:26:25.816Z,9.13
2023-01-26T20:28:54.006Z,11.43
2023-01-26T20:31:24.539Z,9.85
2023-01-26T20:33:53.317Z,9.50
2023-01-26T20:36:24.596Z,8.75
2023-01-26T20:38:51.862Z,9.40
2023-01-26T20:41:23.706Z,9.55
2023-01-26T20:43:59.934Z,8.15
2023-01-26T20:46:33.022Z,8.27
2023-01-26T20:49:00.311Z,9.02
2023-01-26T20:51:33.815Z,8.65
2023-01-26T20:54:01.304Z,9.35
2023-01-26T20:56:28.700Z,9.70
2023-01-26T20:58:56.266Z,10.38
2023-01-26T21:01:24.890Z,9.80
2023-01-26T21:03:52.383Z,10.20
2023-01-26T21:06:21.609Z,9.90
2023-01-26T21:08:49.885Z,8.85
2023-01-26T21:11:17.704Z,9.88
2023-01-26T21:13:45.331Z,9.07
2023-01-26T21:16:16.760Z,8.85
2023-01-26T21:18:45.970Z,10.95
2023-01-26T21:21:18.852Z,9.45
2023-01-26T21:23:46.227Z,8.85
2023-01-26T21:26:17.867Z,10.00
2023-01-26T21:28:49.787Z,9.55
2023-01-26T21:31:17.161Z,9.93
2023-01-26T21:33:48.053Z,9.10
2023-01-26T21:36:18.506Z,10.13
2023-01-26T21:38:48.061Z,9.27
2023-01-26T21:41:43.769Z,9.80
2023-01-26T21:44:20.823Z,9.40
2023-01-26T21:46:50.526Z,8.52
2023-01-26T21:49:18.091Z,8.80
2023-01-26T21:52:03.793Z,8.57
2023-01-26T21:54:31.715Z,8.05
2023-01-26T21:56:59.148Z,9.48
2023-01-26T21:59:26.353Z,8.88
2023-01-26T22:01:55.712Z,8.38
2023-01-26T22:04:26.358Z,9.25
2023-01-26T22:06:54.078Z,8.63
2023-01-26T22:09:22.960Z,8.15
2023-01-26T22:11:51.534Z,8.50
2023-01-26T22:14:27.741Z,9.40
2023-01-26T22:16:54.671Z,8.57
2023-01-26T22:19:21.784Z,8.25
2023-01-26T22:21:48.807Z,9.07
2023-01-26T22:24:17.848Z,7.90
2023-01-26T22:26:44.884Z,8.27
2023-01-26T22:29:13.088Z,8.52
2023-01-26T22:31:40.139Z,8.88
2023-01-26T22:34:07.120Z,8.73
2023-01-26T22:36:34.142Z,7.53
2023-01-26T22:39:01.324Z,7.88
2023-01-26T22:41:30.642Z,8.40
2023-01-26T22:44:00.178Z,7.93
2023-01-26T22:46:30.088Z,9.75
2023-01-26T22:49:00.292Z,7.43
2023-01-26T22:51:30.714Z,9.55
2023-01-26T22:53:59.233Z,7.75
2023-01-26T22:56:27.432Z,7.93
2023-01-26T22:59:00.524Z,7.55
2023-01-26T23:01:31.315Z,7.63
2023-01-26T23:03:59.853Z,7.57
2023-01-26T23:06:28.271Z,6.63
2023-01-26T23:08:55.478Z,7.93
2023-01-26T23:11:27.498Z,7.82
2023-01-26T23:13:57.063Z,8.02
2023-01-26T23:16:25.648Z,7.32
2023-01-26T23:18:55.517Z,8.00
2023-01-26T23:21:24.561Z,7.30
2023-01-26T23:23:51.716Z,7.53
2023-01-26T23:26:18.878Z,7.40
2023-01-26T23:28:46.158Z,7.25
2023-01-26T23:31:16.342Z,7.50
2023-01-26T23:33:43.758Z,7.25
2023-01-26T23:36:13.008Z,7.63
2023-01-26T23:38:40.510Z,7.93
2023-01-26T23:41:12.039Z,7.38
2023-01-26T23:43:39.377Z,7.22
2023-01-26T23:46:08.456Z,8.15
2023-01-26T23:48:35.861Z,7.35
2023-01-26T23:51:07.198Z,8.10
2023-01-26T23:53:34.559Z,7.50
2023-01-26T23:56:07.210Z,8.10
2023-01-26T23:58:34.479Z,9.48
